This is the latest recevied weather packets stored in our database for station/object KC5DAQ-24. If no packets are shown the sender has not sent any weather packets the latest 1 day(s).
| Time | Temp. | Humidity | Pressure | Rain* | Wind** | Luminosity | Snow |
|---|---|---|---|---|---|---|---|
| 1778020082 | 27.78° C | 80% | 1005.6 hPa | 0 mm | 2.24 m/s, 149° | 178 W/m² | - |
| 1778020023 | 27.78° C | 80% | 1005.6 hPa | 0 mm | 2.68 m/s, 224° | 155 W/m² | - |
| 1778019963 | 27.78° C | 80% | 1005.7 hPa | 0 mm | 2.24 m/s, 206° | - | - |
| 1778019904 | 27.78° C | 79% | 1005.7 hPa | 0 mm | 1.34 m/s, 223° | - | - |
| 1778017594 | 28.33° C | 77% | 1006 hPa | 0 mm | 2.68 m/s, 190° | 199 W/m² | - |
| 1778017534 | 28.33° C | 77% | 1006 hPa | 0 mm | 2.68 m/s, 190° | 199 W/m² | - |
| 1778017474 | 28.33° C | 77% | 1006.1 hPa | 0 mm | 2.68 m/s, 190° | 199 W/m² | - |
| 1778017414 | 28.33° C | 77% | 1006 hPa | 0 mm | 2.68 m/s, 190° | 199 W/m² | - |
| 1778017352 | 28.33° C | 77% | 1006.1 hPa | 0 mm | 2.68 m/s, 190° | 199 W/m² | - |
| 1778017292 | 28.33° C | 77% | 1006.1 hPa | 0 mm | 2.68 m/s, 190° | 199 W/m² | - |
| 1778017232 | 28.33° C | 77% | 1006.1 hPa | 0 mm | 2.68 m/s, 190° | 199 W/m² | - |
| 1778017174 | 28.33° C | 77% | 1006.1 hPa | 0 mm | 2.68 m/s, 190° | 199 W/m² | - |
| 1778017112 | 28.33° C | 77% | 1006.1 hPa | 0 mm | 2.68 m/s, 190° | 199 W/m² | - |
| 1778017053 | 28.33° C | 77% | 1006.1 hPa | 0 mm | 2.68 m/s, 190° | 199 W/m² | - |
| 1778016992 | 28.33° C | 77% | 1006.1 hPa | 0 mm | 2.68 m/s, 210° | 202 W/m² | - |
| 1778016932 | 28.33° C | 77% | 1006.1 hPa | 0 mm | 3.13 m/s, 220° | 211 W/m² | - |
| 1778016871 | 28.33° C | 77% | 1006.1 hPa | 0 mm | 3.13 m/s, 244° | 267 W/m² | - |
| 1778016812 | 28.33° C | 76% | 1006.1 hPa | 0 mm | 2.68 m/s, 238° | 410 W/m² | - |
| 1778016751 | 28.33° C | 76% | 1006.1 hPa | 0 mm | 2.68 m/s, 207° | 410 W/m² | - |
| 1778016693 | 28.33° C | 76% | 1006.1 hPa | 0 mm | 3.58 m/s, 172° | 341 W/m² | - |
| 1778016631 | 28.33° C | 77% | 1006.1 hPa | 0 mm | 4.92 m/s, 223° | - | - |
| 1778015486 | 28.33° C | 77% | 1006.3 hPa | 0 mm | 4.02 m/s, 230° | - | - |
| 1778015426 | 28.33° C | 77% | 1006.3 hPa | 0 mm | 4.02 m/s, 230° | 281 W/m² | - |
| 1778015365 | 28.33° C | 77% | 1006.4 hPa | 0 mm | 4.02 m/s, 230° | 281 W/m² | - |
| 1778015305 | 28.33° C | 77% | 1006.3 hPa | 0 mm | 4.02 m/s, 230° | 281 W/m² | - |
* Rain latest hour (hover to see other rain measurements)
** Current wind speed in m/s (hover to see current wind gust speed)